Time;durP1;ratioP1;P1;durP2;ratioP2;P2;SDS_P1;SDS_P2;PMS_P1;PMS_P2;Temp;Humidity;BMP_temperature;BMP_pressure;BME280_temperature;BME280_humidity;BME280_pressure;Samples;Min_cycle;Max_cycle;Signal;HPM_P1;HPM_P2
2023/12/31 00:00:42;;;;;;;;;;;15.40;87.50;;;;;;5052081;28;19970;-73
2023/12/31 00:03:08;;;;;;;;;;;15.40;87.00;;;;;;5054575;28;19909;-73
2023/12/31 00:05:35;;;;;;;;;;;15.40;87.40;;;;;;5055545;28;19921;-73
2023/12/31 00:08:01;;;;;;;;;;;15.40;87.60;;;;;;5055863;28;19909;-73
2023/12/31 00:10:27;;;;;;;;;;;15.40;87.30;;;;;;5056321;28;20276;-73
2023/12/31 00:12:53;;;;;;;;;;;15.40;87.40;;;;;;5055466;28;20410;-73
2023/12/31 00:15:19;;;;;;;;;;;15.40;87.20;;;;;;5055298;28;20367;-73
2023/12/31 00:17:45;;;;;;;;;;;15.40;87.10;;;;;;5055403;28;19909;-73
2023/12/31 00:20:11;;;;;;;;;;;15.40;87.20;;;;;;5055604;28;19916;-73
2023/12/31 00:22:37;;;;;;;;;;;15.50;87.10;;;;;;5055359;28;19934;-73
2023/12/31 00:25:03;;;;;;;;;;;15.40;86.90;;;;;;5055577;28;20003;-73
2023/12/31 00:27:29;;;;;;;;;;;15.40;86.10;;;;;;5055444;28;20291;-73
2023/12/31 00:29:55;;;;;;;;;;;15.50;87.00;;;;;;5055527;28;19909;-73
2023/12/31 00:32:21;;;;;;;;;;;15.50;86.60;;;;;;5055319;28;19909;-73
2023/12/31 00:34:47;;;;;;;;;;;15.40;87.00;;;;;;5055293;28;19952;-73
2023/12/31 00:37:13;;;;;;;;;;;15.50;87.10;;;;;;5054927;28;19913;-73
2023/12/31 00:39:39;;;;;;;;;;;15.40;86.90;;;;;;5055659;28;19909;-73
2023/12/31 00:42:05;;;;;;;;;;;15.50;87.10;;;;;;5055113;28;19915;-72
2023/12/31 00:44:31;;;;;;;;;;;15.40;86.90;;;;;;5055068;28;19913;-72
2023/12/31 00:46:57;;;;;;;;;;;15.40;87.30;;;;;;5055033;28;19909;-72
2023/12/31 00:49:23;;;;;;;;;;;15.50;87.10;;;;;;5055001;28;19958;-72
2023/12/31 00:51:49;;;;;;;;;;;15.50;87.20;;;;;;5055117;28;19916;-77
2023/12/31 00:54:15;;;;;;;;;;;15.50;87.40;;;;;;5054851;28;19909;-76
2023/12/31 00:56:41;;;;;;;;;;;15.50;87.20;;;;;;5054925;28;19931;-76
2023/12/31 00:59:07;;;;;;;;;;;15.50;86.80;;;;;;5054544;28;20279;-76
2023/12/31 01:01:33;;;;;;;;;;;15.50;86.80;;;;;;5054673;28;19913;-76
2023/12/31 01:03:59;;;;;;;;;;;15.40;87.10;;;;;;5054287;28;20000;-76
2023/12/31 01:06:25;;;;;;;;;;;15.40;86.90;;;;;;5054829;28;19945;-75
2023/12/31 01:08:51;;;;;;;;;;;15.50;87.20;;;;;;5055192;28;19970;-73
2023/12/31 01:11:17;;;;;;;;;;;15.60;87.10;;;;;;5054242;28;19909;-72
2023/12/31 01:13:43;;;;;;;;;;;15.40;87.20;;;;;;5054140;28;19913;-73
2023/12/31 01:16:09;;;;;;;;;;;15.60;87.20;;;;;;5054443;28;19963;-72
2023/12/31 01:18:35;;;;;;;;;;;15.60;87.10;;;;;;5054423;28;19909;-73
2023/12/31 01:21:02;;;;;;;;;;;15.50;87.20;;;;;;5054581;28;20325;-76
2023/12/31 01:23:27;;;;;;;;;;;15.70;83.30;;;;;;5054111;28;19913;-76
2023/12/31 01:25:54;;;;;;;;;;;15.50;87.00;;;;;;5054257;28;19916;-76
2023/12/31 01:28:19;;;;;;;;;;;15.50;86.90;;;;;;5054015;28;19916;-76
2023/12/31 01:30:46;;;;;;;;;;;15.50;86.80;;;;;;5054324;28;19908;-76
2023/12/31 01:33:12;;;;;;;;;;;15.60;87.00;;;;;;5054291;28;19909;-75
2023/12/31 01:35:37;;;;;;;;;;;15.60;87.10;;;;;;5054515;28;19916;-72
2023/12/31 01:38:03;;;;;;;;;;;15.50;86.90;;;;;;5054509;28;20278;-72
2023/12/31 01:40:29;;;;;;;;;;;15.60;87.10;;;;;;5053731;28;19909;-72
2023/12/31 01:42:55;;;;;;;;;;;15.40;86.50;;;;;;5054028;28;19915;-72
2023/12/31 01:45:21;;;;;;;;;;;15.50;86.40;;;;;;5053993;28;20252;-72
2023/12/31 01:47:47;;;;;;;;;;;15.40;86.40;;;;;;5053869;28;20405;-76
2023/12/31 01:50:14;;;;;;;;;;;15.50;86.60;;;;;;5053944;28;20287;-76
2023/12/31 01:52:41;;;;;;;;;;;15.50;86.40;;;;;;5053756;28;19995;-76
2023/12/31 01:55:07;;;;;;;;;;;15.50;86.90;;;;;;5053740;28;20003;-76
2023/12/31 01:57:35;;;;;;;;;;;15.50;86.30;;;;;;5053694;28;20368;-75
2023/12/31 02:00:03;;;;;;;;;;;15.80;86.40;;;;;;5053329;28;19924;-76
2023/12/31 02:02:30;;;;;;;;;;;15.50;86.20;;;;;;5053561;28;19909;-76
2023/12/31 02:04:56;;;;;;;;;;;15.50;86.20;;;;;;5053763;28;20337;-76
2023/12/31 02:07:23;;;;;;;;;;;15.50;86.20;;;;;;5053486;28;19909;-76
2023/12/31 02:09:49;;;;;;;;;;;15.50;86.50;;;;;;5053091;28;20356;-76
2023/12/31 02:12:15;;;;;;;;;;;15.50;86.40;;;;;;5053404;28;19909;-76
2023/12/31 02:14:41;;;;;;;;;;;15.50;86.10;;;;;;5053201;28;20004;-75
2023/12/31 02:17:07;;;;;;;;;;;15.50;86.60;;;;;;5053458;28;19956;-75
2023/12/31 02:19:33;;;;;;;;;;;15.60;86.50;;;;;;5053346;28;20291;-75
2023/12/31 02:22:00;;;;;;;;;;;15.50;86.20;;;;;;5053274;28;20279;-77
2023/12/31 02:24:29;;;;;;;;;;;15.50;86.10;;;;;;5052263;28;19955;-78
2023/12/31 02:26:55;;;;;;;;;;;15.50;86.10;;;;;;5053200;28;19909;-77
2023/12/31 02:29:21;;;;;;;;;;;15.50;86.10;;;;;;5053180;28;20020;-75
2023/12/31 02:31:47;;;;;;;;;;;15.50;86.10;;;;;;5052786;28;20299;-78
2023/12/31 02:34:13;;;;;;;;;;;15.50;86.10;;;;;;5053425;28;19909;-77
2023/12/31 02:36:39;;;;;;;;;;;15.50;86.10;;;;;;5052998;28;19921;-77
2023/12/31 02:39:04;;;;;;;;;;;15.50;85.80;;;;;;5052735;28;19915;-77
2023/12/31 02:41:32;;;;;;;;;;;15.50;86.10;;;;;;5053005;28;19917;-77
2023/12/31 02:43:58;;;;;;;;;;;15.50;86.10;;;;;;5052662;28;19908;-76
2023/12/31 02:46:23;;;;;;;;;;;15.50;85.80;;;;;;5052987;28;19958;-71
2023/12/31 02:48:49;;;;;;;;;;;15.50;86.00;;;;;;5052470;28;20029;-73
2023/12/31 02:51:15;;;;;;;;;;;15.50;85.80;;;;;;5052860;28;19909;-73
2023/12/31 02:53:41;;;;;;;;;;;15.50;86.20;;;;;;5052751;28;19916;-74
2023/12/31 02:56:07;;;;;;;;;;;15.50;85.90;;;;;;5052740;28;20256;-73
2023/12/31 02:58:33;;;;;;;;;;;15.50;86.00;;;;;;5052741;28;20379;-73
2023/12/31 03:00:59;;;;;;;;;;;15.50;85.70;;;;;;5052819;28;20286;-73
2023/12/31 03:03:25;;;;;;;;;;;15.50;85.70;;;;;;5052326;28;19909;-74
2023/12/31 03:05:51;;;;;;;;;;;15.50;85.90;;;;;;5052119;28;20027;-73
2023/12/31 03:08:17;;;;;;;;;;;15.40;85.80;;;;;;5052294;28;19909;-73
2023/12/31 03:10:43;;;;;;;;;;;15.40;85.80;;;;;;5052551;28;19963;-73
2023/12/31 03:13:09;;;;;;;;;;;15.40;85.80;;;;;;5052200;28;19987;-77
2023/12/31 03:15:35;;;;;;;;;;;15.40;86.00;;;;;;5052605;28;20015;-77
2023/12/31 03:18:01;;;;;;;;;;;15.50;85.80;;;;;;5052425;28;19988;-77
2023/12/31 03:20:26;;;;;;;;;;;15.40;85.90;;;;;;5052546;28;19909;-77
2023/12/31 03:22:52;;;;;;;;;;;15.50;85.70;;;;;;5052342;28;20248;-77
2023/12/31 03:25:19;;;;;;;;;;;15.40;85.60;;;;;;5052158;28;19916;-77
2023/12/31 03:27:45;;;;;;;;;;;15.40;85.60;;;;;;5052510;28;20365;-77
2023/12/31 03:30:11;;;;;;;;;;;15.40;85.60;;;;;;5052656;28;20271;-77
2023/12/31 03:32:37;;;;;;;;;;;15.50;85.70;;;;;;5052367;28;20286;-77
2023/12/31 03:35:03;;;;;;;;;;;15.40;85.30;;;;;;5051876;28;19927;-76
2023/12/31 03:37:30;;;;;;;;;;;15.50;85.70;;;;;;5056059;28;19916;-77
2023/12/31 03:39:56;;;;;;;;;;;15.90;84.20;;;;;;5056344;28;19955;-77
2023/12/31 03:42:22;;;;;;;;;;;15.40;85.50;;;;;;5056445;28;19909;-77
2023/12/31 03:44:48;;;;;;;;;;;15.40;85.60;;;;;;5056375;28;19943;-78
2023/12/31 03:47:14;;;;;;;;;;;15.40;85.60;;;;;;5055913;28;19917;-78
2023/12/31 03:49:40;;;;;;;;;;;15.40;85.80;;;;;;5056226;28;19932;-78
2023/12/31 03:52:06;;;;;;;;;;;15.40;85.80;;;;;;5055905;28;20402;-77
2023/12/31 03:54:32;;;;;;;;;;;15.50;86.00;;;;;;5056123;28;19915;-77
2023/12/31 03:56:58;;;;;;;;;;;15.40;85.90;;;;;;5056040;28;19913;-77
2023/12/31 03:59:24;;;;;;;;;;;15.40;86.00;;;;;;5056398;28;19954;-77
2023/12/31 04:01:56;;;;;;;;;;;15.40;85.80;;;;;;5055896;28;19909;-77
2023/12/31 04:04:23;;;;;;;;;;;15.50;85.80;;;;;;5055699;28;19920;-76
2023/12/31 04:06:49;;;;;;;;;;;15.40;85.80;;;;;;5056017;28;19913;-77
2023/12/31 04:09:14;;;;;;;;;;;15.40;85.80;;;;;;5055588;28;20055;-77
2023/12/31 04:11:40;;;;;;;;;;;15.40;85.90;;;;;;5055669;28;19908;-74
2023/12/31 04:14:05;;;;;;;;;;;15.40;85.70;;;;;;5055478;28;19961;-73
2023/12/31 04:16:31;;;;;;;;;;;15.50;85.90;;;;;;5055429;28;19917;-74
2023/12/31 04:18:56;;;;;;;;;;;15.50;85.70;;;;;;5055433;28;19909;-73
2023/12/31 04:21:22;;;;;;;;;;;15.50;85.50;;;;;;5055701;28;19916;-73
2023/12/31 04:23:47;;;;;;;;;;;15.40;85.70;;;;;;5055295;28;20445;-73
2023/12/31 04:26:13;;;;;;;;;;;15.40;85.60;;;;;;5055220;28;19919;-73
2023/12/31 04:28:38;;;;;;;;;;;15.40;85.60;;;;;;5055737;28;19909;-74
2023/12/31 04:31:04;;;;;;;;;;;15.40;85.50;;;;;;5055215;28;19909;-73
2023/12/31 04:33:29;;;;;;;;;;;15.40;85.60;;;;;;5055036;28;19952;-73
2023/12/31 04:35:55;;;;;;;;;;;15.50;85.50;;;;;;5055051;28;19920;-73
2023/12/31 04:38:20;;;;;;;;;;;15.40;85.40;;;;;;5055042;28;19954;-73
2023/12/31 04:40:46;;;;;;;;;;;15.40;85.40;;;;;;5055101;28;20283;-73
2023/12/31 04:43:11;;;;;;;;;;;15.40;85.30;;;;;;5054895;28;19915;-73
2023/12/31 04:45:37;;;;;;;;;;;15.40;85.60;;;;;;5054991;28;20326;-73
2023/12/31 04:48:02;;;;;;;;;;;15.50;85.30;;;;;;5054072;28;19938;-73
2023/12/31 04:50:28;;;;;;;;;;;15.50;85.40;;;;;;5054894;28;19916;-74
2023/12/31 04:52:55;;;;;;;;;;;15.10;84.90;;;;;;5054720;28;19917;-74
2023/12/31 04:55:20;;;;;;;;;;;15.40;85.40;;;;;;5055399;28;20014;-74
2023/12/31 04:57:46;;;;;;;;;;;15.40;85.50;;;;;;5054698;28;20326;-74
2023/12/31 05:00:13;;;;;;;;;;;15.40;85.20;;;;;;5054846;28;19949;-74
2023/12/31 05:02:39;;;;;;;;;;;15.30;85.30;;;;;;5054786;28;20032;-74
2023/12/31 05:05:05;;;;;;;;;;;15.40;85.20;;;;;;5054411;28;20399;-73
2023/12/31 05:07:31;;;;;;;;;;;15.40;85.10;;;;;;5054727;28;19992;-77
2023/12/31 05:09:57;;;;;;;;;;;15.40;85.00;;;;;;5054731;28;19913;-77
2023/12/31 05:12:23;;;;;;;;;;;15.40;85.20;;;;;;5054476;28;19966;-77
2023/12/31 05:14:49;;;;;;;;;;;15.40;85.10;;;;;;5054151;28;20257;-77
2023/12/31 05:17:15;;;;;;;;;;;15.40;84.90;;;;;;5054132;28;19945;-77
2023/12/31 05:19:41;;;;;;;;;;;15.40;85.20;;;;;;5054419;28;19966;-77
2023/12/31 05:22:07;;;;;;;;;;;15.30;85.00;;;;;;5054122;28;19916;-77
2023/12/31 05:24:33;;;;;;;;;;;15.30;85.10;;;;;;5054739;28;19916;-73
2023/12/31 05:26:59;;;;;;;;;;;15.30;84.80;;;;;;5054322;28;19909;-74
2023/12/31 05:29:25;;;;;;;;;;;15.30;85.10;;;;;;5054199;28;19909;-73
2023/12/31 05:31:51;;;;;;;;;;;15.30;85.00;;;;;;5054224;28;19915;-73
2023/12/31 05:34:17;;;;;;;;;;;15.40;84.90;;;;;;5054245;28;20379;-73
2023/12/31 05:36:42;;;;;;;;;;;15.30;84.90;;;;;;5053903;28;19936;-74
2023/12/31 05:39:08;;;;;;;;;;;15.30;84.90;;;;;;5054494;28;19939;-74
2023/12/31 05:41:35;;;;;;;;;;;15.30;84.90;;;;;;5053778;28;19916;-74
2023/12/31 05:44:00;;;;;;;;;;;15.30;84.90;;;;;;5053796;28;19923;-73
2023/12/31 05:46:26;;;;;;;;;;;;;;;;;;5053942;28;19909;-74
2023/12/31 05:48:52;;;;;;;;;;;15.40;85.00;;;;;;5053721;28;19909;-73
2023/12/31 05:51:18;;;;;;;;;;;15.30;84.70;;;;;;5053577;28;20418;-74
2023/12/31 05:53:43;;;;;;;;;;;15.30;85.00;;;;;;5036385;28;19916;-76
2023/12/31 05:56:09;;;;;;;;;;;15.30;84.70;;;;;;5053568;28;20019;-76
2023/12/31 05:58:35;;;;;;;;;;;15.30;84.60;;;;;;5053608;28;19913;-77
2023/12/31 06:01:02;;;;;;;;;;;15.30;84.80;;;;;;5053372;28;19920;-77
2023/12/31 06:03:28;;;;;;;;;;;15.30;84.80;;;;;;5053590;28;20267;-73
2023/12/31 06:05:54;;;;;;;;;;;15.30;84.90;;;;;;5053164;28;19927;-73
2023/12/31 06:08:22;;;;;;;;;;;15.40;85.00;;;;;;5052371;28;21265;-73
2023/12/31 06:10:48;;;;;;;;;;;15.20;84.70;;;;;;5053138;28;19913;-73
2023/12/31 06:13:14;;;;;;;;;;;15.30;84.80;;;;;;5053153;28;19913;-73
2023/12/31 06:15:40;;;;;;;;;;;15.30;84.70;;;;;;5053240;28;19923;-73
2023/12/31 06:18:06;;;;;;;;;;;15.20;85.00;;;;;;5053333;28;19909;-74
2023/12/31 06:20:32;;;;;;;;;;;15.30;85.00;;;;;;5053525;28;20020;-73
2023/12/31 06:22:58;;;;;;;;;;;15.30;84.90;;;;;;5053570;28;19909;-74
2023/12/31 06:25:24;;;;;;;;;;;15.30;84.80;;;;;;5053230;28;19936;-74
2023/12/31 06:27:50;;;;;;;;;;;15.30;85.00;;;;;;5053180;28;20375;-73
2023/12/31 06:30:16;;;;;;;;;;;15.40;85.30;;;;;;5052935;28;19954;-74
2023/12/31 06:32:42;;;;;;;;;;;15.40;85.00;;;;;;5052780;28;19992;-77
2023/12/31 06:35:08;;;;;;;;;;;15.30;85.20;;;;;;5053072;28;20015;-77
2023/12/31 06:37:34;;;;;;;;;;;15.30;85.20;;;;;;5053015;28;19991;-77
2023/12/31 06:40:00;;;;;;;;;;;15.40;84.90;;;;;;5052585;28;20415;-77
2023/12/31 06:42:26;;;;;;;;;;;15.30;85.00;;;;;;5052608;28;20390;-76
2023/12/31 06:44:52;;;;;;;;;;;15.30;85.00;;;;;;5052555;28;19909;-76
2023/12/31 06:47:18;;;;;;;;;;;15.20;85.10;;;;;;5052806;28;19919;-77
2023/12/31 06:49:44;;;;;;;;;;;15.30;84.90;;;;;;5053227;28;19912;-73
2023/12/31 06:52:10;;;;;;;;;;;15.40;85.20;;;;;;5052894;28;19999;-73
2023/12/31 06:54:36;;;;;;;;;;;15.30;84.90;;;;;;5052413;28;19944;-73
2023/12/31 06:57:02;;;;;;;;;;;15.30;84.90;;;;;;5052640;28;19912;-73
2023/12/31 06:59:28;;;;;;;;;;;15.40;85.00;;;;;;5052446;28;19948;-73
2023/12/31 07:01:54;;;;;;;;;;;15.30;85.10;;;;;;5052925;28;19913;-73
2023/12/31 07:04:20;;;;;;;;;;;15.30;85.20;;;;;;5052198;28;20368;-73
2023/12/31 07:06:46;;;;;;;;;;;15.30;85.00;;;;;;5052562;28;20011;-73
2023/12/31 07:09:11;;;;;;;;;;;15.30;85.30;;;;;;5052637;28;20019;-73
2023/12/31 07:11:37;;;;;;;;;;;15.40;85.20;;;;;;5052141;28;19999;-73
2023/12/31 07:14:03;;;;;;;;;;;15.30;84.90;;;;;;5052253;28;19913;-73
2023/12/31 07:16:29;;;;;;;;;;;15.40;85.30;;;;;;5052457;28;19963;-73
2023/12/31 07:18:55;;;;;;;;;;;15.30;85.10;;;;;;5052888;28;19913;-73
2023/12/31 07:21:22;;;;;;;;;;;15.30;85.40;;;;;;5052183;28;19955;-73
2023/12/31 07:23:48;;;;;;;;;;;15.30;85.00;;;;;;5052374;28;19909;-73
2023/12/31 07:26:26;;;;;;;;;;;15.30;85.40;;;;;;5052456;28;20054;-73
2023/12/31 07:28:53;;;;;;;;;;;15.30;85.40;;;;;;5052138;28;19909;-73
2023/12/31 07:31:19;;;;;;;;;;;15.00;85.00;;;;;;5052286;28;19998;-73
2023/12/31 07:33:45;;;;;;;;;;;15.30;85.40;;;;;;5052300;28;19917;-72
2023/12/31 07:36:11;;;;;;;;;;;15.40;85.70;;;;;;5052250;28;19921;-73
2023/12/31 07:38:37;;;;;;;;;;;15.40;85.60;;;;;;5052244;28;19916;-73
2023/12/31 07:41:03;;;;;;;;;;;15.30;85.90;;;;;;5051909;28;19913;-73
2023/12/31 07:43:30;;;;;;;;;;;15.30;85.60;;;;;;5051977;28;19916;-73
2023/12/31 07:45:56;;;;;;;;;;;15.40;85.50;;;;;;5052259;28;19995;-73
2023/12/31 07:48:22;;;;;;;;;;;14.90;85.50;;;;;;5052846;28;19947;-73
2023/12/31 07:50:48;;;;;;;;;;;15.30;85.70;;;;;;5052350;28;19908;-73
2023/12/31 07:53:14;;;;;;;;;;;15.30;85.80;;;;;;5052166;28;19912;-73
2023/12/31 07:55:40;;;;;;;;;;;15.40;85.50;;;;;;5052142;28;19917;-73
2023/12/31 07:58:06;;;;;;;;;;;15.40;85.90;;;;;;5051859;28;20343;-77
2023/12/31 08:00:32;;;;;;;;;;;15.40;86.10;;;;;;5052601;28;19909;-76
2023/12/31 08:02:58;;;;;;;;;;;15.30;85.80;;;;;;5051776;28;19909;-76
2023/12/31 08:05:23;;;;;;;;;;;15.40;86.00;;;;;;5051810;28;19924;-78
2023/12/31 08:07:49;;;;;;;;;;;15.40;85.80;;;;;;5052202;28;19913;-76
2023/12/31 08:10:15;;;;;;;;;;;15.50;86.00;;;;;;5052078;28;20267;-76
2023/12/31 08:12:42;;;;;;;;;;;15.40;85.80;;;;;;5051654;28;19909;-77
2023/12/31 08:15:08;;;;;;;;;;;15.40;86.00;;;;;;5051943;28;20383;-73
2023/12/31 08:17:34;;;;;;;;;;;15.40;85.70;;;;;;5052132;28;20264;-74
2023/12/31 08:20:00;;;;;;;;;;;15.50;86.30;;;;;;5052325;28;19916;-73
2023/12/31 08:22:26;;;;;;;;;;;15.40;86.00;;;;;;5051825;28;20379;-74
2023/12/31 08:24:52;;;;;;;;;;;15.40;85.80;;;;;;5055745;28;19915;-81
2023/12/31 08:27:18;;;;;;;;;;;15.40;85.70;;;;;;5055597;28;19935;-78
2023/12/31 08:29:43;;;;;;;;;;;15.40;85.70;;;;;;5055574;28;19913;-81
2023/12/31 08:32:09;;;;;;;;;;;15.40;86.00;;;;;;5055323;28;19909;-80
2023/12/31 08:34:34;;;;;;;;;;;15.40;85.80;;;;;;5056455;28;19916;-84
2023/12/31 08:37:00;;;;;;;;;;;15.50;85.70;;;;;;5055374;28;19913;-76
2023/12/31 08:39:25;;;;;;;;;;;15.50;85.70;;;;;;5055182;28;19982;-84
2023/12/31 08:41:51;;;;;;;;;;;15.40;85.60;;;;;;5055200;28;19909;-73
2023/12/31 08:44:17;;;;;;;;;;;15.50;85.40;;;;;;5055303;28;19916;-73
2023/12/31 08:46:43;;;;;;;;;;;15.70;85.80;;;;;;5055228;28;19966;-74
2023/12/31 08:49:10;;;;;;;;;;;;;;;;;;5055182;28;19940;-73
2023/12/31 08:51:35;;;;;;;;;;;15.50;85.40;;;;;;5054817;28;20322;-73
2023/12/31 08:54:01;;;;;;;;;;;15.50;85.70;;;;;;5054900;28;19915;-73
2023/12/31 08:56:27;;;;;;;;;;;15.40;85.40;;;;;;5054955;28;19917;-73
2023/12/31 08:58:53;;;;;;;;;;;15.40;85.90;;;;;;5054764;28;19909;-73
2023/12/31 09:01:19;;;;;;;;;;;15.40;85.30;;;;;;5054537;28;19916;-72
2023/12/31 09:03:45;;;;;;;;;;;15.40;85.70;;;;;;5054982;28;19979;-75
2023/12/31 09:06:11;;;;;;;;;;;15.60;85.80;;;;;;5054509;28;20380;-75
2023/12/31 09:08:36;;;;;;;;;;;15.40;85.20;;;;;;5054544;28;19971;-75
2023/12/31 09:11:02;;;;;;;;;;;15.40;85.60;;;;;;5036689;28;19908;-74
2023/12/31 09:13:28;;;;;;;;;;;15.40;85.20;;;;;;5054516;28;20257;-73
2023/12/31 09:15:55;;;;;;;;;;;15.40;85.10;;;;;;5054443;28;20008;-74
2023/12/31 09:18:21;;;;;;;;;;;15.50;85.00;;;;;;5054443;28;20255;-73
2023/12/31 09:20:47;;;;;;;;;;;15.40;85.30;;;;;;5054769;28;20198;-72
2023/12/31 09:23:12;;;;;;;;;;;15.40;84.70;;;;;;5054423;28;20364;-73
2023/12/31 09:25:38;;;;;;;;;;;15.40;84.80;;;;;;5054340;28;19920;-73
2023/12/31 09:28:04;;;;;;;;;;;15.50;84.70;;;;;;5054553;28;19912;-73
2023/12/31 09:30:29;;;;;;;;;;;15.50;83.90;;;;;;5054084;28;19909;-73
2023/12/31 09:32:54;;;;;;;;;;;15.40;85.10;;;;;;5054198;28;20005;-73
2023/12/31 09:35:20;;;;;;;;;;;15.40;85.00;;;;;;5053902;28;19913;-73
2023/12/31 09:37:45;;;;;;;;;;;15.40;84.80;;;;;;5054489;28;19923;-73
2023/12/31 09:40:11;;;;;;;;;;;15.40;84.60;;;;;;5054479;28;20380;-73
2023/12/31 09:42:46;;;;;;;;;;;15.40;84.50;;;;;;5054143;28;19913;-73
2023/12/31 09:45:13;;;;;;;;;;;15.80;84.80;;;;;;5054146;28;19909;-73
2023/12/31 09:47:39;;;;;;;;;;;15.40;85.40;;;;;;5053775;28;19912;-73
2023/12/31 09:50:07;;;;;;;;;;;15.40;85.20;;;;;;5036134;28;19916;-73
2023/12/31 09:52:33;;;;;;;;;;;15.30;83.80;;;;;;5053745;28;20416;-73
2023/12/31 09:55:00;;;;;;;;;;;15.40;85.50;;;;;;5053969;28;19952;-73
2023/12/31 09:57:26;;;;;;;;;;;15.50;85.30;;;;;;5053857;28;20276;-73
2023/12/31 09:59:54;;;;;;;;;;;15.40;84.30;;;;;;5053998;28;19909;-73
2023/12/31 10:02:21;;;;;;;;;;;15.40;84.40;;;;;;5053777;28;20082;-73
2023/12/31 10:04:49;;;;;;;;;;;15.40;84.40;;;;;;5053474;28;19932;-73
2023/12/31 10:07:15;;;;;;;;;;;15.40;84.50;;;;;;5054270;28;20264;-73
2023/12/31 10:09:42;;;;;;;;;;;15.40;84.60;;;;;;5053578;28;20270;-73
2023/12/31 10:12:08;;;;;;;;;;;15.40;84.60;;;;;;5035863;28;20232;-73
2023/12/31 10:14:34;;;;;;;;;;;15.40;84.60;;;;;;5035309;28;19913;-73
2023/12/31 10:17:05;;;;;;;;;;;15.30;85.00;;;;;;5035554;28;19924;-74
2023/12/31 10:19:31;;;;;;;;;;;15.40;85.20;;;;;;5035905;28;19920;-72
2023/12/31 10:21:57;;;;;;;;;;;15.40;84.50;;;;;;5035645;28;19913;-74
2023/12/31 10:24:29;;;;;;;;;;;15.40;84.60;;;;;;5056522;28;20298;-72
2023/12/31 10:27:12;;;;;;;;;;;15.30;84.40;;;;;;5036990;28;19913;-72
2023/12/31 10:29:38;;;;;;;;;;;15.40;84.50;;;;;;5035521;28;20287;-73
2023/12/31 10:32:05;;;;;;;;;;;15.30;84.40;;;;;;5036373;28;19923;-73
2023/12/31 10:34:32;;;;;;;;;;;15.40;84.30;;;;;;5035636;28;19913;-72
2023/12/31 10:37:03;;;;;;;;;;;15.30;84.50;;;;;;5035523;28;19920;-74
2023/12/31 10:39:29;;;;;;;;;;;15.40;84.50;;;;;;5035406;28;19913;-73
2023/12/31 10:41:56;;;;;;;;;;;15.40;84.50;;;;;;5035309;28;19944;-73
2023/12/31 10:44:23;;;;;;;;;;;15.30;84.50;;;;;;5035000;28;19913;-73
2023/12/31 10:46:57;;;;;;;;;;;15.30;84.20;;;;;;5035417;28;19963;-73
2023/12/31 10:49:26;;;;;;;;;;;15.40;84.10;;;;;;5035454;28;19920;-75
2023/12/31 10:51:53;;;;;;;;;;;15.20;84.10;;;;;;5052528;28;20371;-73
2023/12/31 10:54:23;;;;;;;;;;;15.30;84.20;;;;;;5035020;28;19913;-72
2023/12/31 10:56:49;;;;;;;;;;;15.10;84.80;;;;;;5035065;28;20276;-73
2023/12/31 10:59:16;;;;;;;;;;;15.40;84.80;;;;;;5035220;28;19920;-73
2023/12/31 11:01:43;;;;;;;;;;;15.30;84.00;;;;;;5034590;28;19912;-73
2023/12/31 11:04:09;;;;;;;;;;;15.30;84.60;;;;;;5034536;28;19935;-73
2023/12/31 11:06:36;;;;;;;;;;;15.20;84.00;;;;;;5052500;28;20387;-73
2023/12/31 11:09:02;;;;;;;;;;;15.20;84.10;;;;;;5034505;28;19912;-72
2023/12/31 11:11:27;;;;;;;;;;;15.20;83.90;;;;;;5034556;28;20397;-73
2023/12/31 11:13:55;;;;;;;;;;;15.20;84.00;;;;;;5034940;28;19963;-73
2023/12/31 11:16:26;;;;;;;;;;;15.20;84.10;;;;;;5034528;28;19970;-73
2023/12/31 11:18:54;;;;;;;;;;;15.20;84.10;;;;;;5052347;28;19962;-73
2023/12/31 11:21:20;;;;;;;;;;;15.20;79.20;;;;;;5052360;28;19909;-73
2023/12/31 11:23:57;;;;;;;;;;;15.20;83.90;;;;;;5052290;28;19915;-73
2023/12/31 11:26:23;;;;;;;;;;;15.20;84.00;;;;;;5034502;28;20007;-73
2023/12/31 11:28:49;;;;;;;;;;;15.20;84.10;;;;;;5034417;28;19944;-73
2023/12/31 11:31:15;;;;;;;;;;;15.20;84.20;;;;;;5034701;28;19948;-73
2023/12/31 11:33:41;;;;;;;;;;;15.00;83.90;;;;;;5034447;28;19956;-73
2023/12/31 11:36:15;;;;;;;;;;;15.10;84.20;;;;;;5034297;28;19956;-74
2023/12/31 11:38:53;;;;;;;;;;;15.20;79.30;;;;;;5034341;28;19913;-73
2023/12/31 11:41:19;;;;;;;;;;;15.20;83.90;;;;;;5052791;28;19916;-74
2023/12/31 11:43:45;;;;;;;;;;;15.20;84.20;;;;;;5034322;28;19919;-72
2023/12/31 11:46:30;;;;;;;;;;;15.20;84.10;;;;;;5034196;28;19912;-73
2023/12/31 11:48:57;;;;;;;;;;;15.20;84.20;;;;;;5034213;28;19913;-74
2023/12/31 11:51:23;;;;;;;;;;;15.30;84.60;;;;;;5034860;28;19920;-73
2023/12/31 11:53:49;;;;;;;;;;;15.10;84.00;;;;;;5034224;28;19936;-74
2023/12/31 11:56:15;;;;;;;;;;;15.10;84.00;;;;;;5034144;28;19921;-72
2023/12/31 11:58:42;;;;;;;;;;;15.20;83.90;;;;;;5038346;28;20003;-73
2023/12/31 12:01:09;;;;;;;;;;;15.20;84.00;;;;;;5037862;28;20318;-77
2023/12/31 12:03:35;;;;;;;;;;;15.20;84.00;;;;;;5038165;28;19970;-73
2023/12/31 12:06:01;;;;;;;;;;;15.10;83.60;;;;;;5037801;28;19925;-75
2023/12/31 12:08:27;;;;;;;;;;;15.10;83.80;;;;;;5038347;28;20321;-73
2023/12/31 12:10:53;;;;;;;;;;;15.10;83.80;;;;;;5038769;28;20067;-74
2023/12/31 12:13:19;;;;;;;;;;;15.00;83.40;;;;;;5038136;28;19912;-76
2023/12/31 12:15:45;;;;;;;;;;;15.10;83.80;;;;;;5037773;28;20309;-77
2023/12/31 12:18:19;;;;;;;;;;;15.00;83.80;;;;;;5038083;28;19913;-78
2023/12/31 12:20:45;;;;;;;;;;;15.10;83.70;;;;;;5055643;28;19913;-74
2023/12/31 12:23:11;;;;;;;;;;;15.10;83.90;;;;;;5037782;28;19936;-76
2023/12/31 12:25:37;;;;;;;;;;;15.10;83.40;;;;;;5037822;28;19913;-76
2023/12/31 12:28:06;;;;;;;;;;;15.00;83.70;;;;;;5037810;28;19913;-77
2023/12/31 12:30:32;;;;;;;;;;;15.00;83.70;;;;;;5037717;28;19919;-79
2023/12/31 12:32:59;;;;;;;;;;;15.00;84.30;;;;;;5037513;28;19913;-77
2023/12/31 12:35:27;;;;;;;;;;;15.00;83.50;;;;;;5037376;28;19921;-73
2023/12/31 12:37:53;;;;;;;;;;;15.00;83.50;;;;;;5037950;28;20592;-75
2023/12/31 12:40:19;;;;;;;;;;;15.00;83.40;;;;;;5037193;28;19920;-73
2023/12/31 12:42:46;;;;;;;;;;;15.00;83.40;;;;;;5037618;28;19967;-73
2023/12/31 12:45:13;;;;;;;;;;;15.00;83.30;;;;;;5037613;28;20295;-75
2023/12/31 12:47:43;;;;;;;;;;;15.10;83.80;;;;;;5037560;28;20279;-73
2023/12/31 12:50:09;;;;;;;;;;;15.00;83.20;;;;;;5037370;28;19936;-73
2023/12/31 12:52:35;;;;;;;;;;;15.10;83.00;;;;;;5055143;28;19947;-75
2023/12/31 12:55:01;;;;;;;;;;;15.00;82.80;;;;;;5037437;28;20358;-74
2023/12/31 12:57:27;;;;;;;;;;;15.10;83.30;;;;;;5037459;28;19944;-73
2023/12/31 12:59:53;;;;;;;;;;;15.10;83.80;;;;;;5055215;28;19913;-73
2023/12/31 13:02:19;;;;;;;;;;;15.00;83.20;;;;;;5055049;28;19920;-73
2023/12/31 13:04:45;;;;;;;;;;;15.10;83.50;;;;;;5054641;28;19966;-73
2023/12/31 13:07:11;;;;;;;;;;;14.90;83.30;;;;;;5055045;28;19954;-73
2023/12/31 13:09:38;;;;;;;;;;;15.00;83.40;;;;;;5054539;28;20017;-72
2023/12/31 13:12:05;;;;;;;;;;;15.00;83.40;;;;;;5054549;28;19909;-73
2023/12/31 13:14:31;;;;;;;;;;;14.90;81.30;;;;;;5054636;28;19955;-73
2023/12/31 13:16:57;;;;;;;;;;;15.10;83.10;;;;;;5054462;28;20380;-72
2023/12/31 13:19:24;;;;;;;;;;;15.20;83.00;;;;;;5054721;28;19963;-72
2023/12/31 13:21:50;;;;;;;;;;;15.10;82.50;;;;;;5054737;28;19909;-72
2023/12/31 13:24:16;;;;;;;;;;;15.30;82.20;;;;;;5054309;28;19955;-72
2023/12/31 13:26:41;;;;;;;;;;;15.30;82.50;;;;;;5054644;28;20023;-72
2023/12/31 13:29:07;;;;;;;;;;;15.30;82.10;;;;;;5054418;28;20008;-74
2023/12/31 13:31:33;;;;;;;;;;;15.40;82.20;;;;;;5054573;28;20305;-74
2023/12/31 13:33:59;;;;;;;;;;;15.40;82.00;;;;;;5054598;28;20363;-74
2023/12/31 13:36:25;;;;;;;;;;;15.50;82.40;;;;;;5054050;28;19917;-74
2023/12/31 13:38:51;;;;;;;;;;;15.30;82.40;;;;;;5054105;28;19916;-73
2023/12/31 13:41:17;;;;;;;;;;;15.30;82.40;;;;;;5054345;28;19909;-73
2023/12/31 13:43:43;;;;;;;;;;;15.30;82.50;;;;;;5054326;28;19909;-73
2023/12/31 13:46:09;;;;;;;;;;;15.30;82.90;;;;;;5054022;28;19970;-72
2023/12/31 13:48:35;;;;;;;;;;;15.10;82.30;;;;;;5054008;28;19909;-72
2023/12/31 13:51:01;;;;;;;;;;;15.10;82.40;;;;;;5053737;28;20260;-72
2023/12/31 13:53:27;;;;;;;;;;;15.10;82.60;;;;;;5053865;28;19908;-72
2023/12/31 13:55:53;;;;;;;;;;;15.30;82.40;;;;;;5053533;28;20379;-72
2023/12/31 13:58:19;;;;;;;;;;;15.20;82.90;;;;;;5053886;28;19916;-72
2023/12/31 14:00:49;;;;;;;;;;;15.00;82.60;;;;;;5053536;28;19909;-73
2023/12/31 14:03:16;;;;;;;;;;;15.00;82.70;;;;;;5053750;28;19995;-72
2023/12/31 14:05:41;;;;;;;;;;;15.00;82.80;;;;;;5053329;28;20352;-72
2023/12/31 14:08:08;;;;;;;;;;;15.00;83.00;;;;;;5053766;28;19991;-73
2023/12/31 14:10:34;;;;;;;;;;;15.00;82.70;;;;;;5053356;28;19916;-72
2023/12/31 14:13:00;;;;;;;;;;;15.00;82.70;;;;;;5053680;28;19908;-73